sensor_id;sensor_type;location;lat;lon;timestamp;pressure;altitude;pressure_sealevel;temperature;humidity
68169;BME280;54981;50.206;15.978;2023-07-31T00:02:12;98693.72;;;15.65;100.00
68169;BME280;54981;50.206;15.978;2023-07-31T00:04:42;98694.81;;;15.62;100.00
68169;BME280;54981;50.206;15.978;2023-07-31T00:07:12;98696.66;;;15.62;100.00
68169;BME280;54981;50.206;15.978;2023-07-31T00:09:43;98691.34;;;15.73;100.00
68169;BME280;54981;50.206;15.978;2023-07-31T00:12:13;98700.34;;;15.72;100.00
68169;BME280;54981;50.206;15.978;2023-07-31T00:14:44;98688.97;;;15.68;100.00
68169;BME280;54981;50.206;15.978;2023-07-31T00:17:14;98698.84;;;15.68;100.00
68169;BME280;54981;50.206;15.978;2023-07-31T00:19:45;98696.16;;;15.68;100.00
68169;BME280;54981;50.206;15.978;2023-07-31T00:22:16;98698.50;;;15.72;100.00
68169;BME280;54981;50.206;15.978;2023-07-31T00:24:46;98699.94;;;15.65;100.00
68169;BME280;54981;50.206;15.978;2023-07-31T00:27:17;98698.34;;;15.63;100.00
68169;BME280;54981;50.206;15.978;2023-07-31T00:29:47;98691.16;;;15.63;100.00
68169;BME280;54981;50.206;15.978;2023-07-31T00:32:18;98699.94;;;15.65;100.00
68169;BME280;54981;50.206;15.978;2023-07-31T00:34:48;98698.63;;;15.60;100.00
68169;BME280;54981;50.206;15.978;2023-07-31T00:37:18;98697.63;;;15.61;100.00
68169;BME280;54981;50.206;15.978;2023-07-31T00:39:49;98695.19;;;15.58;100.00
68169;BME280;54981;50.206;15.978;2023-07-31T00:42:19;98696.66;;;15.62;100.00
68169;BME280;54981;50.206;15.978;2023-07-31T00:44:50;98694.09;;;15.60;100.00
68169;BME280;54981;50.206;15.978;2023-07-31T00:47:20;98696.91;;;15.59;100.00
68169;BME280;54981;50.206;15.978;2023-07-31T00:49:51;98692.50;;;15.69;100.00
68169;BME280;54981;50.206;15.978;2023-07-31T00:52:21;98689.09;;;15.55;100.00
68169;BME280;54981;50.206;15.978;2023-07-31T00:54:52;98686.66;;;15.52;100.00
68169;BME280;54981;50.206;15.978;2023-07-31T00:57:22;98686.44;;;15.44;100.00
68169;BME280;54981;50.206;15.978;2023-07-31T00:59:53;98682.53;;;15.37;100.00
68169;BME280;54981;50.206;15.978;2023-07-31T01:02:23;98680.31;;;15.42;100.00
68169;BME280;54981;50.206;15.978;2023-07-31T01:04:54;98685.44;;;15.45;100.00
68169;BME280;54981;50.206;15.978;2023-07-31T01:07:36;98687.13;;;15.46;100.00
68169;BME280;54981;50.206;15.978;2023-07-31T01:12:51;98683.00;;;15.42;100.00
68169;BME280;54981;50.206;15.978;2023-07-31T01:15:21;98687.88;;;15.37;100.00
68169;BME280;54981;50.206;15.978;2023-07-31T01:17:51;98686.41;;;15.33;100.00
68169;BME280;54981;50.206;15.978;2023-07-31T01:20:24;98684.47;;;15.35;100.00
68169;BME280;54981;50.206;15.978;2023-07-31T01:28:30;98677.72;;;15.29;100.00
68169;BME280;54981;50.206;15.978;2023-07-31T01:31:06;98674.69;;;15.34;100.00
68169;BME280;54981;50.206;15.978;2023-07-31T01:33:38;98673.72;;;15.35;100.00
68169;BME280;54981;50.206;15.978;2023-07-31T01:36:10;98680.19;;;15.32;100.00
68169;BME280;54981;50.206;15.978;2023-07-31T01:38:41;98685.78;;;15.29;100.00
68169;BME280;54981;50.206;15.978;2023-07-31T01:41:11;98683.34;;;15.26;100.00
68169;BME280;54981;50.206;15.978;2023-07-31T01:43:42;98682.25;;;15.18;100.00
68169;BME280;54981;50.206;15.978;2023-07-31T01:46:12;98684.41;;;15.12;100.00
68169;BME280;54981;50.206;15.978;2023-07-31T01:48:42;98682.22;;;15.06;100.00
68169;BME280;54981;50.206;15.978;2023-07-31T01:51:13;98686.75;;;15.06;100.00
68169;BME280;54981;50.206;15.978;2023-07-31T01:53:43;98678.69;;;15.06;100.00
68169;BME280;54981;50.206;15.978;2023-07-31T01:56:14;98686.22;;;15.01;100.00
68169;BME280;54981;50.206;15.978;2023-07-31T01:58:44;98676.00;;;14.95;100.00
68169;BME280;54981;50.206;15.978;2023-07-31T02:01:14;98675.34;;;14.91;100.00
68169;BME280;54981;50.206;15.978;2023-07-31T02:03:45;98667.31;;;14.91;100.00
68169;BME280;54981;50.206;15.978;2023-07-31T02:06:15;98668.66;;;14.85;100.00
68169;BME280;54981;50.206;15.978;2023-07-31T02:08:46;98666.22;;;14.82;100.00
68169;BME280;54981;50.206;15.978;2023-07-31T02:11:16;98663.78;;;14.79;100.00
68169;BME280;54981;50.206;15.978;2023-07-31T02:13:46;98676.09;;;14.82;100.00
68169;BME280;54981;50.206;15.978;2023-07-31T02:16:17;98675.00;;;14.84;100.00
68169;BME280;54981;50.206;15.978;2023-07-31T02:18:47;98678.03;;;14.80;100.00
68169;BME280;54981;50.206;15.978;2023-07-31T02:21:17;98675.81;;;14.74;100.00
68169;BME280;54981;50.206;15.978;2023-07-31T02:23:48;98684.19;;;14.69;100.00
68169;BME280;54981;50.206;15.978;2023-07-31T02:26:18;98677.59;;;14.62;100.00
68169;BME280;54981;50.206;15.978;2023-07-31T02:28:48;98682.44;;;14.57;100.00
68169;BME280;54981;50.206;15.978;2023-07-31T02:31:19;98678.69;;;14.59;100.00
68169;BME280;54981;50.206;15.978;2023-07-31T02:33:49;98682.09;;;14.61;100.00
68169;BME280;54981;50.206;15.978;2023-07-31T02:36:20;98675.06;;;14.47;100.00
68169;BME280;54981;50.206;15.978;2023-07-31T02:38:50;98673.81;;;14.40;100.00
68169;BME280;54981;50.206;15.978;2023-07-31T02:41:20;98671.13;;;14.40;100.00
68169;BME280;54981;50.206;15.978;2023-07-31T02:43:51;98668.59;;;14.39;100.00
68169;BME280;54981;50.206;15.978;2023-07-31T02:46:21;98669.34;;;14.41;100.00
68169;BME280;54981;50.206;15.978;2023-07-31T02:48:54;98669.44;;;14.39;100.00
68169;BME280;54981;50.206;15.978;2023-07-31T02:51:24;98673.94;;;14.39;100.00
68169;BME280;54981;50.206;15.978;2023-07-31T02:53:55;98666.88;;;14.38;100.00
68169;BME280;54981;50.206;15.978;2023-07-31T02:56:25;98681.75;;;14.42;100.00
68169;BME280;54981;50.206;15.978;2023-07-31T02:58:55;98681.91;;;14.27;100.00
68169;BME280;54981;50.206;15.978;2023-07-31T03:01:26;98682.78;;;14.28;100.00
68169;BME280;54981;50.206;15.978;2023-07-31T03:03:56;98685.44;;;14.28;100.00
68169;BME280;54981;50.206;15.978;2023-07-31T03:06:27;98681.91;;;14.27;100.00
68169;BME280;54981;50.206;15.978;2023-07-31T03:08:58;98681.41;;;14.22;100.00
68169;BME280;54981;50.206;15.978;2023-07-31T03:11:28;98685.00;;;14.10;100.00
68169;BME280;54981;50.206;15.978;2023-07-31T03:13:58;98677.47;;;14.15;100.00
68169;BME280;54981;50.206;15.978;2023-07-31T03:16:29;98682.59;;;14.18;100.00
68169;BME280;54981;50.206;15.978;2023-07-31T03:18:59;98673.09;;;14.14;100.00
68169;BME280;54981;50.206;15.978;2023-07-31T03:21:29;98677.47;;;14.15;100.00
68169;BME280;54981;50.206;15.978;2023-07-31T03:24:00;98675.88;;;14.13;100.00
68169;BME280;54981;50.206;15.978;2023-07-31T03:26:33;98679.41;;;14.13;100.00
68169;BME280;54981;50.206;15.978;2023-07-31T03:29:03;98680.66;;;14.20;100.00
68169;BME280;54981;50.206;15.978;2023-07-31T03:31:34;98687.28;;;14.27;100.00
68169;BME280;54981;50.206;15.978;2023-07-31T03:34:04;98685.09;;;14.33;100.00
68169;BME280;54981;50.206;15.978;2023-07-31T03:36:34;98690.97;;;14.38;100.00
68169;BME280;54981;50.206;15.978;2023-07-31T03:39:05;98684.66;;;14.39;100.00
68169;BME280;54981;50.206;15.978;2023-07-31T03:41:35;98691.44;;;14.32;100.00
68169;BME280;54981;50.206;15.978;2023-07-31T03:44:05;98696.06;;;14.30;100.00
68169;BME280;54981;50.206;15.978;2023-07-31T03:46:36;98690.59;;;14.31;100.00
68169;BME280;54981;50.206;15.978;2023-07-31T03:49:06;98691.44;;;14.32;100.00
68169;BME280;54981;50.206;15.978;2023-07-31T03:51:37;98699.34;;;14.33;100.00
68169;BME280;54981;50.206;15.978;2023-07-31T03:54:07;98697.53;;;14.34;100.00
68169;BME280;54981;50.206;15.978;2023-07-31T03:56:37;98693.81;;;14.23;100.00
68169;BME280;54981;50.206;15.978;2023-07-31T03:59:08;98699.69;;;14.28;100.00
68169;BME280;54981;50.206;15.978;2023-07-31T04:01:39;98694.56;;;14.25;100.00
68169;BME280;54981;50.206;15.978;2023-07-31T04:04:09;98694.56;;;14.25;100.00
68169;BME280;54981;50.206;15.978;2023-07-31T04:06:39;98693.38;;;14.30;100.00
68169;BME280;54981;50.206;15.978;2023-07-31T04:09:10;98695.25;;;14.40;100.00
68169;BME280;54981;50.206;15.978;2023-07-31T04:11:40;98697.59;;;14.45;100.00
68169;BME280;54981;50.206;15.978;2023-07-31T04:14:10;98694.69;;;14.48;100.00
68169;BME280;54981;50.206;15.978;2023-07-31T04:16:41;98703.25;;;14.53;100.00
68169;BME280;54981;50.206;15.978;2023-07-31T04:19:11;98702.78;;;14.59;100.00
68169;BME280;54981;50.206;15.978;2023-07-31T04:21:46;98704.53;;;14.60;100.00
68169;BME280;54981;50.206;15.978;2023-07-31T04:24:16;98699.31;;;14.70;100.00
68169;BME280;54981;50.206;15.978;2023-07-31T04:26:54;98698.84;;;14.76;100.00
68169;BME280;54981;50.206;15.978;2023-07-31T04:29:24;98696.16;;;14.76;100.00
68169;BME280;54981;50.206;15.978;2023-07-31T04:31:54;98691.19;;;14.83;100.00
68169;BME280;54981;50.206;15.978;2023-07-31T04:34:25;98690.94;;;14.86;100.00
68169;BME280;54981;50.206;15.978;2023-07-31T04:36:55;98689.28;;;14.96;100.00
68169;BME280;54981;50.206;15.978;2023-07-31T04:39:25;98691.59;;;15.01;100.00
68169;BME280;54981;50.206;15.978;2023-07-31T04:41:56;98698.72;;;15.13;100.00
68169;BME280;54981;50.206;15.978;2023-07-31T04:44:26;98695.03;;;15.14;100.00
68169;BME280;54981;50.206;15.978;2023-07-31T04:46:56;98700.53;;;15.24;100.00
68169;BME280;54981;50.206;15.978;2023-07-31T04:49:27;98697.97;;;15.22;100.00
68169;BME280;54981;50.206;15.978;2023-07-31T04:51:57;98691.63;;;15.23;100.00
68169;BME280;54981;50.206;15.978;2023-07-31T04:54:27;98692.63;;;15.33;100.00
68169;BME280;54981;50.206;15.978;2023-07-31T04:56:58;98695.78;;;15.39;100.00
68169;BME280;54981;50.206;15.978;2023-07-31T04:59:28;98697.66;;;15.49;100.00
68169;BME280;54981;50.206;15.978;2023-07-31T05:01:58;98702.66;;;15.54;100.00
68169;BME280;54981;50.206;15.978;2023-07-31T05:04:29;98707.75;;;15.57;100.00
68169;BME280;54981;50.206;15.978;2023-07-31T05:06:59;98701.03;;;15.63;100.00
68169;BME280;54981;50.206;15.978;2023-07-31T05:09:30;98694.25;;;15.70;100.00
68169;BME280;54981;50.206;15.978;2023-07-31T05:12:00;98703.03;;;15.72;100.00
68169;BME280;54981;50.206;15.978;2023-07-31T05:14:30;98690.94;;;15.77;100.00
68169;BME280;54981;50.206;15.978;2023-07-31T05:17:01;98697.03;;;15.80;100.00
68169;BME280;54981;50.206;15.978;2023-07-31T05:19:31;98702.03;;;15.95;100.00
68169;BME280;54981;50.206;15.978;2023-07-31T05:22:01;98685.78;;;16.08;100.00
68169;BME280;54981;50.206;15.978;2023-07-31T05:24:32;98695.03;;;16.15;100.00
68169;BME280;54981;50.206;15.978;2023-07-31T05:27:03;98688.91;;;16.25;100.00
68169;BME280;54981;50.206;15.978;2023-07-31T05:29:34;98683.75;;;16.33;100.00
68169;BME280;54981;50.206;15.978;2023-07-31T05:32:05;98685.28;;;16.47;100.00
68169;BME280;54981;50.206;15.978;2023-07-31T05:34:35;98684.53;;;16.56;100.00
68169;BME280;54981;50.206;15.978;2023-07-31T05:37:06;98686.28;;;16.67;100.00
68169;BME280;54981;50.206;15.978;2023-07-31T05:39:36;98679.28;;;16.87;100.00
68169;BME280;54981;50.206;15.978;2023-07-31T05:42:07;98681.44;;;16.93;100.00
68169;BME280;54981;50.206;15.978;2023-07-31T05:44:37;98675.94;;;16.94;100.00
68169;BME280;54981;50.206;15.978;2023-07-31T05:47:07;98679.94;;;17.00;100.00
68169;BME280;54981;50.206;15.978;2023-07-31T05:49:38;98685.38;;;17.10;100.00
68169;BME280;54981;50.206;15.978;2023-07-31T05:52:08;98679.81;;;17.01;100.00
68169;BME280;54981;50.206;15.978;2023-07-31T05:54:38;98687.03;;;17.01;100.00
68169;BME280;54981;50.206;15.978;2023-07-31T05:57:09;98686.97;;;16.91;100.00
68169;BME280;54981;50.206;15.978;2023-07-31T05:59:39;98680.47;;;16.94;100.00
68169;BME280;54981;50.206;15.978;2023-07-31T06:02:09;98684.47;;;16.99;100.00
68169;BME280;54981;50.206;15.978;2023-07-31T06:04:40;98688.44;;;17.05;100.00
68169;BME280;54981;50.206;15.978;2023-07-31T06:07:10;98689.38;;;17.15;100.00
68169;BME280;54981;50.206;15.978;2023-07-31T06:09:41;98689.56;;;17.23;100.00
68169;BME280;54981;50.206;15.978;2023-07-31T06:12:11;98687.47;;;17.27;100.00
68169;BME280;54981;50.206;15.978;2023-07-31T06:14:41;98684.69;;;17.38;100.00
68169;BME280;54981;50.206;15.978;2023-07-31T06:17:12;98668.56;;;17.48;100.00
68169;BME280;54981;50.206;15.978;2023-07-31T06:19:42;98664.09;;;17.58;100.00
68169;BME280;54981;50.206;15.978;2023-07-31T06:22:12;98670.09;;;17.72;100.00
68169;BME280;54981;50.206;15.978;2023-07-31T06:24:43;98668.69;;;17.77;100.00
68169;BME280;54981;50.206;15.978;2023-07-31T06:27:13;98671.91;;;17.92;100.00
68169;BME280;54981;50.206;15.978;2023-07-31T06:29:43;98663.97;;;18.00;100.00
68169;BME280;54981;50.206;15.978;2023-07-31T06:32:14;98670.84;;;18.24;100.00
68169;BME280;54981;50.206;15.978;2023-07-31T06:34:44;98669.13;;;18.23;100.00
68169;BME280;54981;50.206;15.978;2023-07-31T06:37:15;98670.25;;;18.20;100.00
68169;BME280;54981;50.206;15.978;2023-07-31T06:39:46;98667.56;;;18.20;100.00
68169;BME280;54981;50.206;15.978;2023-07-31T06:42:16;98676.38;;;18.32;100.00
68169;BME280;54981;50.206;15.978;2023-07-31T06:44:46;98673.41;;;18.35;100.00
68169;BME280;54981;50.206;15.978;2023-07-31T06:47:17;98674.81;;;18.39;100.00
68169;BME280;54981;50.206;15.978;2023-07-31T06:49:47;98671.16;;;18.50;100.00
68169;BME280;54981;50.206;15.978;2023-07-31T06:52:17;98674.25;;;18.55;100.00
68169;BME280;54981;50.206;15.978;2023-07-31T06:55:01;98668.88;;;18.84;100.00
68169;BME280;54981;50.206;15.978;2023-07-31T06:57:32;98668.13;;;19.11;100.00
68169;BME280;54981;50.206;15.978;2023-07-31T07:00:03;98658.16;;;19.31;100.00
68169;BME280;54981;50.206;15.978;2023-07-31T07:02:34;98661.19;;;19.56;100.00
68169;BME280;54981;50.206;15.978;2023-07-31T07:05:04;98667.97;;;19.70;100.00
68169;BME280;54981;50.206;15.978;2023-07-31T07:07:35;98661.88;;;19.68;100.00
68169;BME280;54981;50.206;15.978;2023-07-31T07:10:06;98660.41;;;19.73;100.00
68169;BME280;54981;50.206;15.978;2023-07-31T07:12:37;98655.81;;;19.84;100.00
68169;BME280;54981;50.206;15.978;2023-07-31T07:15:08;98648.78;;;20.18;100.00
68169;BME280;54981;50.206;15.978;2023-07-31T07:17:38;98647.34;;;20.42;100.00
68169;BME280;54981;50.206;15.978;2023-07-31T07:20:09;98645.09;;;20.91;100.00
68169;BME280;54981;50.206;15.978;2023-07-31T07:22:39;98640.75;;;20.98;100.00
68169;BME280;54981;50.206;15.978;2023-07-31T07:25:11;98635.00;;;21.01;100.00
68169;BME280;54981;50.206;15.978;2023-07-31T07:27:41;98632.41;;;21.18;100.00
68169;BME280;54981;50.206;15.978;2023-07-31T07:30:12;98647.91;;;21.08;100.00
68169;BME280;54981;50.206;15.978;2023-07-31T07:32:42;98642.31;;;21.09;100.00
68169;BME280;54981;50.206;15.978;2023-07-31T07:35:12;98639.97;;;20.16;100.00
68169;BME280;54981;50.206;15.978;2023-07-31T07:37:43;98643.06;;;20.21;100.00
68169;BME280;54981;50.206;15.978;2023-07-31T07:40:13;98633.50;;;20.45;100.00
68169;BME280;54981;50.206;15.978;2023-07-31T07:42:44;98636.50;;;20.24;100.00
68169;BME280;54981;50.206;15.978;2023-07-31T07:45:14;98633.28;;;20.56;100.00
68169;BME280;54981;50.206;15.978;2023-07-31T07:47:45;98626.94;;;20.83;100.00
68169;BME280;54981;50.206;15.978;2023-07-31T07:50:15;98627.69;;;21.46;100.00
68169;BME280;54981;50.206;15.978;2023-07-31T07:52:45;98619.00;;;21.77;100.00
68169;BME280;54981;50.206;15.978;2023-07-31T07:55:16;98621.91;;;21.75;100.00
68169;BME280;54981;50.206;15.978;2023-07-31T07:57:46;98617.44;;;21.58;100.00
68169;BME280;54981;50.206;15.978;2023-07-31T08:00:17;98613.69;;;21.59;100.00
68169;BME280;54981;50.206;15.978;2023-07-31T08:02:47;98612.72;;;21.34;100.00
68169;BME280;54981;50.206;15.978;2023-07-31T08:05:17;98613.47;;;21.44;100.00
68169;BME280;54981;50.206;15.978;2023-07-31T08:07:48;98612.81;;;21.24;100.00
68169;BME280;54981;50.206;15.978;2023-07-31T08:10:18;98607.44;;;21.32;100.00
68169;BME280;54981;50.206;15.978;2023-07-31T08:12:49;98608.56;;;21.47;100.00
68169;BME280;54981;50.206;15.978;2023-07-31T08:15:19;98604.53;;;21.52;100.00
68169;BME280;54981;50.206;15.978;2023-07-31T08:17:49;98610.47;;;21.55;100.00
68169;BME280;54981;50.206;15.978;2023-07-31T08:20:20;98612.97;;;21.48;100.00
68169;BME280;54981;50.206;15.978;2023-07-31T08:22:50;98610.66;;;21.36;100.00
68169;BME280;54981;50.206;15.978;2023-07-31T08:25:21;98610.47;;;21.29;100.00
68169;BME280;54981;50.206;15.978;2023-07-31T08:27:51;98616.63;;;21.13;100.00
68169;BME280;54981;50.206;15.978;2023-07-31T08:30:22;98609.53;;;21.38;100.00
68169;BME280;54981;50.206;15.978;2023-07-31T08:32:53;98608.41;;;21.49;100.00
68169;BME280;54981;50.206;15.978;2023-07-31T08:35:24;98603.69;;;21.25;100.00
68169;BME280;54981;50.206;15.978;2023-07-31T08:37:55;98598.28;;;21.33;100.00
68169;BME280;54981;50.206;15.978;2023-07-31T08:40:25;98612.06;;;21.40;100.00
68169;BME280;54981;50.206;15.978;2023-07-31T08:42:57;98608.75;;;21.54;100.00
68169;BME280;54981;50.206;15.978;2023-07-31T08:45:32;98605.75;;;21.31;100.00
68169;BME280;54981;50.206;15.978;2023-07-31T08:48:02;98597.47;;;21.67;100.00
68169;BME280;54981;50.206;15.978;2023-07-31T08:50:33;98595.78;;;21.74;100.00
68169;BME280;54981;50.206;15.978;2023-07-31T08:53:03;98601.13;;;21.92;100.00
68169;BME280;54981;50.206;15.978;2023-07-31T08:55:35;98602.16;;;21.99;100.00
68169;BME280;54981;50.206;15.978;2023-07-31T08:58:06;98596.47;;;21.76;100.00
68169;BME280;54981;50.206;15.978;2023-07-31T09:00:36;98593.97;;;21.75;100.00
68169;BME280;54981;50.206;15.978;2023-07-31T09:03:14;98599.59;;;21.89;100.00
68169;BME280;54981;50.206;15.978;2023-07-31T09:05:47;98595.31;;;22.38;100.00
68169;BME280;54981;50.206;15.978;2023-07-31T09:08:21;98598.03;;;22.79;100.00
68169;BME280;54981;50.206;15.978;2023-07-31T09:10:52;98588.00;;;22.63;100.00
68169;BME280;54981;50.206;15.978;2023-07-31T09:13:22;98597.00;;;22.47;100.00
68169;BME280;54981;50.206;15.978;2023-07-31T09:15:53;98588.09;;;22.12;100.00
68169;BME280;54981;50.206;15.978;2023-07-31T09:18:23;98599.03;;;22.28;100.00
68169;BME280;54981;50.206;15.978;2023-07-31T09:21:06;98602.75;;;22.36;100.00
68169;BME280;54981;50.206;15.978;2023-07-31T09:23:44;98593.19;;;21.99;100.00
68169;BME280;54981;50.206;15.978;2023-07-31T09:26:34;98601.13;;;21.49;100.00
68169;BME280;54981;50.206;15.978;2023-07-31T09:29:06;98596.41;;;21.60;100.00
68169;BME280;54981;50.206;15.978;2023-07-31T09:31:42;98605.25;;;21.36;100.00
68169;BME280;54981;50.206;15.978;2023-07-31T09:34:13;98606.53;;;21.49;100.00
68169;BME280;54981;50.206;15.978;2023-07-31T09:36:48;98601.81;;;21.52;100.00
68169;BME280;54981;50.206;15.978;2023-07-31T09:39:19;98598.84;;;21.71;100.00
68169;BME280;54981;50.206;15.978;2023-07-31T09:41:56;98592.84;;;21.94;100.00
68169;BME280;54981;50.206;15.978;2023-07-31T09:44:40;98594.31;;;21.80;100.00
68169;BME280;54981;50.206;15.978;2023-07-31T09:47:23;98594.59;;;21.68;100.00
68169;BME280;54981;50.206;15.978;2023-07-31T09:49:54;98595.28;;;21.36;100.00
68169;BME280;54981;50.206;15.978;2023-07-31T09:52:26;98598.69;;;20.86;100.00
68169;BME280;54981;50.206;15.978;2023-07-31T09:54:57;98596.38;;;20.91;100.00
68169;BME280;54981;50.206;15.978;2023-07-31T09:57:27;98598.44;;;20.97;100.00
68169;BME280;54981;50.206;15.978;2023-07-31T09:59:58;98589.44;;;21.23;100.00
68169;BME280;54981;50.206;15.978;2023-07-31T10:02:30;98593.84;;;21.50;100.00
68169;BME280;54981;50.206;15.978;2023-07-31T10:05:03;98594.84;;;21.49;100.00
68169;BME280;54981;50.206;15.978;2023-07-31T10:07:37;98587.28;;;21.61;100.00
68169;BME280;54981;50.206;15.978;2023-07-31T10:10:11;98585.16;;;21.81;100.00
68169;BME280;54981;50.206;15.978;2023-07-31T10:12:45;98577.50;;;21.76;100.00
68169;BME280;54981;50.206;15.978;2023-07-31T10:15:16;98569.47;;;22.09;100.00
68169;BME280;54981;50.206;15.978;2023-07-31T10:17:48;98566.41;;;22.12;100.00
68169;BME280;54981;50.206;15.978;2023-07-31T10:20:18;98568.50;;;22.43;100.00
68169;BME280;54981;50.206;15.978;2023-07-31T10:22:51;98549.56;;;23.31;100.00
68169;BME280;54981;50.206;15.978;2023-07-31T10:25:22;98554.78;;;24.12;100.00
68169;BME280;54981;50.206;15.978;2023-07-31T10:27:53;98549.78;;;23.92;100.00
68169;BME280;54981;50.206;15.978;2023-07-31T10:30:27;98560.84;;;23.91;100.00
68169;BME280;54981;50.206;15.978;2023-07-31T10:32:59;98552.03;;;23.49;100.00
68169;BME280;54981;50.206;15.978;2023-07-31T10:35:30;98546.44;;;22.70;100.00
68169;BME280;54981;50.206;15.978;2023-07-31T10:38:10;98549.00;;;22.23;100.00
68169;BME280;54981;50.206;15.978;2023-07-31T10:40:42;98534.25;;;22.33;100.00
68169;BME280;54981;50.206;15.978;2023-07-31T10:43:24;98533.91;;;22.69;100.00
68169;BME280;54981;50.206;15.978;2023-07-31T10:45:55;98540.50;;;22.75;100.00
68169;BME280;54981;50.206;15.978;2023-07-31T10:48:33;98531.50;;;22.74;100.00
68169;BME280;54981;50.206;15.978;2023-07-31T10:51:08;98526.41;;;23.04;100.00
68169;BME280;54981;50.206;15.978;2023-07-31T10:53:40;98525.44;;;23.68;100.00
68169;BME280;54981;50.206;15.978;2023-07-31T10:56:11;98519.56;;;24.33;100.00
68169;BME280;54981;50.206;15.978;2023-07-31T10:58:44;98515.81;;;23.88;100.00
68169;BME280;54981;50.206;15.978;2023-07-31T11:01:16;98506.16;;;23.15;100.00
68169;BME280;54981;50.206;15.978;2023-07-31T11:03:50;98504.16;;;22.84;100.00
68169;BME280;54981;50.206;15.978;2023-07-31T11:06:29;98498.88;;;23.07;100.00
68169;BME280;54981;50.206;15.978;2023-07-31T11:09:00;98499.16;;;23.21;100.00
68169;BME280;54981;50.206;15.978;2023-07-31T11:11:30;98502.56;;;23.23;100.00
68169;BME280;54981;50.206;15.978;2023-07-31T11:14:01;98495.69;;;23.43;100.00
68169;BME280;54981;50.206;15.978;2023-07-31T11:16:31;98498.22;;;23.45;100.00
68169;BME280;54981;50.206;15.978;2023-07-31T11:19:02;98497.97;;;23.63;100.00
68169;BME280;54981;50.206;15.978;2023-07-31T11:21:32;98489.91;;;23.77;100.00
68169;BME280;54981;50.206;15.978;2023-07-31T11:24:04;98491.25;;;23.42;100.00
68169;BME280;54981;50.206;15.978;2023-07-31T11:26:34;98486.63;;;23.20;100.00
68169;BME280;54981;50.206;15.978;2023-07-31T11:29:11;98481.03;;;23.52;100.00
68169;BME280;54981;50.206;15.978;2023-07-31T11:31:45;98480.91;;;23.46;100.00
68169;BME280;54981;50.206;15.978;2023-07-31T11:34:16;98478.13;;;23.85;100.00
68169;BME280;54981;50.206;15.978;2023-07-31T11:36:54;98472.94;;;24.36;100.00
68169;BME280;54981;50.206;15.978;2023-07-31T11:39:25;98467.03;;;24.56;100.00
68169;BME280;54981;50.206;15.978;2023-07-31T11:41:59;98457.91;;;25.08;100.00
68169;BME280;54981;50.206;15.978;2023-07-31T11:44:38;98470.47;;;25.90;98.09
68169;BME280;54981;50.206;15.978;2023-07-31T11:47:08;98468.06;;;25.14;98.86
68169;BME280;54981;50.206;15.978;2023-07-31T11:49:39;98462.63;;;24.84;99.36
68169;BME280;54981;50.206;15.978;2023-07-31T11:52:10;98465.53;;;24.83;100.00
68169;BME280;54981;50.206;15.978;2023-07-31T11:54:42;98464.81;;;25.19;98.61
68169;BME280;54981;50.206;15.978;2023-07-31T11:57:13;98462.88;;;25.49;99.29
68169;BME280;54981;50.206;15.978;2023-07-31T11:59:43;98460.06;;;24.53;100.00
68169;BME280;54981;50.206;15.978;2023-07-31T12:02:14;98452.66;;;24.77;100.00
68169;BME280;54981;50.206;15.978;2023-07-31T12:04:46;98450.81;;;25.22;96.26
68169;BME280;54981;50.206;15.978;2023-07-31T12:07:17;98446.72;;;25.33;96.26
68169;BME280;54981;50.206;15.978;2023-07-31T12:09:54;98442.88;;;25.12;100.00
68169;BME280;54981;50.206;15.978;2023-07-31T12:12:25;98437.91;;;25.01;100.00
68169;BME280;54981;50.206;15.978;2023-07-31T12:14:56;98445.44;;;24.69;100.00
68169;BME280;54981;50.206;15.978;2023-07-31T12:17:26;98436.31;;;24.24;100.00
68169;BME280;54981;50.206;15.978;2023-07-31T12:19:57;98441.88;;;24.69;100.00
68169;BME280;54981;50.206;15.978;2023-07-31T12:22:27;98435.03;;;24.20;100.00
68169;BME280;54981;50.206;15.978;2023-07-31T12:24:57;98427.88;;;24.19;100.00
68169;BME280;54981;50.206;15.978;2023-07-31T12:27:32;98430.41;;;24.06;100.00
68169;BME280;54981;50.206;15.978;2023-07-31T12:30:03;98429.13;;;24.31;100.00
68169;BME280;54981;50.206;15.978;2023-07-31T12:32:34;98424.31;;;24.56;100.00
68169;BME280;54981;50.206;15.978;2023-07-31T12:35:06;98420.50;;;24.28;100.00
68169;BME280;54981;50.206;15.978;2023-07-31T12:37:37;98421.16;;;23.92;100.00
68169;BME280;54981;50.206;15.978;2023-07-31T12:40:08;98410.25;;;23.69;100.00
68169;BME280;54981;50.206;15.978;2023-07-31T12:42:39;98421.63;;;23.72;100.00
68169;BME280;54981;50.206;15.978;2023-07-31T12:45:10;98410.91;;;23.48;100.00
68169;BME280;54981;50.206;15.978;2023-07-31T12:47:41;98418.19;;;23.47;100.00
68169;BME280;54981;50.206;15.978;2023-07-31T12:50:11;98410.03;;;23.24;100.00
68169;BME280;54981;50.206;15.978;2023-07-31T12:52:42;98413.66;;;23.08;100.00
68169;BME280;54981;50.206;15.978;2023-07-31T12:55:12;98412.91;;;23.54;100.00
68169;BME280;54981;50.206;15.978;2023-07-31T12:57:42;98404.25;;;23.81;100.00
68169;BME280;54981;50.206;15.978;2023-07-31T13:00:13;98397.75;;;24.06;100.00
68169;BME280;54981;50.206;15.978;2023-07-31T13:02:43;98394.31;;;23.66;100.00
68169;BME280;54981;50.206;15.978;2023-07-31T13:05:14;98391.50;;;23.82;100.00
68169;BME280;54981;50.206;15.978;2023-07-31T13:07:45;98388.13;;;24.18;100.00
68169;BME280;54981;50.206;15.978;2023-07-31T13:10:15;98378.28;;;24.32;100.00